createdAt,value
2022-11-18T00:01:07.923Z,98923.34
2022-11-18T00:03:34.814Z,98924.13
2022-11-18T00:06:01.285Z,98921.53
2022-11-18T00:08:28.145Z,98928.44
2022-11-18T00:10:54.734Z,98932.75
2022-11-18T00:13:50.380Z,98924.91
2022-11-18T00:16:16.859Z,98937.88
2022-11-18T00:18:43.324Z,98930.88
2022-11-18T00:21:11.551Z,98930.81
2022-11-18T00:23:39.365Z,98935.13
2022-11-18T00:26:08.681Z,98931.59
2022-11-18T00:28:35.482Z,98930.66
2022-11-18T00:31:04.044Z,98935.88
2022-11-18T00:33:31.324Z,98936.63
2022-11-18T00:35:58.355Z,98934.13
2022-11-18T00:38:26.126Z,98941.03
2022-11-18T00:41:00.678Z,98940.19
2022-11-18T00:43:27.139Z,98941.03
2022-11-18T00:45:53.847Z,98945.34
2022-11-18T00:48:21.927Z,98944.47
2022-11-18T00:50:52.980Z,98949.69
2022-11-18T00:53:20.859Z,98958.28
2022-11-18T00:55:47.823Z,98957.44
2022-11-18T00:58:14.467Z,98952.22
2022-11-18T01:00:50.592Z,98958.38
2022-11-18T01:03:17.332Z,98959.28
2022-11-18T01:05:43.855Z,98964.50
2022-11-18T01:08:12.013Z,98963.69
2022-11-18T01:10:40.335Z,98971.59
2022-11-18T01:13:20.898Z,98969.97
2022-11-18T01:15:49.341Z,98969.28
2022-11-18T01:18:17.718Z,98978.97
2022-11-18T01:20:45.143Z,98974.72
2022-11-18T01:23:12.729Z,98978.19
2022-11-18T01:25:41.280Z,98977.25
2022-11-18T01:28:07.858Z,98981.63
2022-11-18T01:30:35.967Z,98985.09
2022-11-18T01:33:04.362Z,98983.41
2022-11-18T01:35:42.704Z,98985.16
2022-11-18T01:38:11.664Z,98985.16
2022-11-18T01:40:38.423Z,98989.63
2022-11-18T01:43:17.378Z,98994.16
2022-11-18T01:45:45.732Z,98996.91
2022-11-18T01:48:20.735Z,98991.72
2022-11-18T01:50:52.103Z,98996.94
2022-11-18T01:53:25.706Z,98999.69
2022-11-18T01:55:56.127Z,98993.66
2022-11-18T01:58:25.005Z,98996.28
2022-11-18T02:00:51.813Z,98989.47
2022-11-18T02:03:18.759Z,99005.19
2022-11-18T02:05:47.992Z,99003.56
2022-11-18T02:08:16.737Z,99009.75
2022-11-18T02:10:43.331Z,99009.06
2022-11-18T02:13:09.960Z,99007.38
2022-11-18T02:15:45.279Z,99014.47
2022-11-18T02:18:34.766Z,99015.38
2022-11-18T02:21:29.183Z,99019.69
2022-11-18T02:24:04.782Z,99023.25
2022-11-18T02:26:51.487Z,99032.91
2022-11-18T02:29:26.583Z,99037.34
2022-11-18T02:32:06.368Z,99037.50
2022-11-18T02:35:05.176Z,99037.34
2022-11-18T02:37:40.490Z,99039.03
2022-11-18T02:40:10.251Z,99047.72
2022-11-18T02:42:39.272Z,99051.13
2022-11-18T02:45:09.307Z,99038.91
2022-11-18T02:47:37.375Z,99046.66
2022-11-18T02:50:09.106Z,99037.94
2022-11-18T02:52:38.988Z,99043.16
2022-11-18T02:55:09.026Z,99042.38
2022-11-18T02:57:36.972Z,99038.91
2022-11-18T03:00:04.695Z,99043.41
2022-11-18T03:02:42.908Z,99049.53
2022-11-18T03:05:18.287Z,99055.97
2022-11-18T03:07:50.468Z,99060.31
2022-11-18T03:10:19.281Z,99059.47
2022-11-18T03:12:56.005Z,99065.53
2022-11-18T03:15:40.882Z,99068.88
2022-11-18T03:18:26.581Z,99065.28
2022-11-18T03:20:58.700Z,99074.78
2022-11-18T03:23:41.481Z,99081.56
2022-11-18T03:26:16.443Z,99085.03
2022-11-18T03:29:05.039Z,99087.56
2022-11-18T03:31:43.074Z,99081.63
2022-11-18T03:34:42.119Z,99086.00
2022-11-18T03:37:12.560Z,99097.28
2022-11-18T03:39:44.344Z,99095.75
2022-11-18T03:42:19.839Z,99102.72
2022-11-18T03:44:59.070Z,99108.84
2022-11-18T03:47:31.948Z,99103.56
2022-11-18T03:50:05.724Z,99109.63
2022-11-18T03:52:36.723Z,99111.31
2022-11-18T03:55:12.349Z,99118.22
2022-11-18T03:57:47.271Z,99117.31
2022-11-18T04:00:16.147Z,99126.75
2022-11-18T04:02:43.562Z,99124.94
2022-11-18T04:05:13.073Z,99124.84
2022-11-18T04:07:53.970Z,99128.25
2022-11-18T04:10:22.073Z,99124.72
2022-11-18T04:13:01.869Z,99137.72
2022-11-18T04:15:33.295Z,99133.34
2022-11-18T04:17:59.921Z,99134.19
2022-11-18T04:20:27.067Z,99139.41
2022-11-18T04:22:53.487Z,99139.38
2022-11-18T04:25:21.060Z,99140.25
2022-11-18T04:27:47.505Z,99144.69
2022-11-18T04:30:13.955Z,99146.38
2022-11-18T04:32:40.427Z,99155.91
2022-11-18T04:35:07.019Z,99146.38
2022-11-18T04:37:35.908Z,99154.28
2022-11-18T04:40:03.248Z,99159.44
2022-11-18T04:42:29.715Z,99160.28
2022-11-18T04:44:56.218Z,99163.75
2022-11-18T04:47:22.750Z,99162.88
2022-11-18T04:49:49.441Z,99166.34
2022-11-18T04:52:16.407Z,99168.94
2022-11-18T04:54:43.140Z,99179.31
2022-11-18T04:57:09.648Z,99181.00
2022-11-18T04:59:36.544Z,99178.41
2022-11-18T05:02:03.656Z,99181.00
2022-11-18T05:04:32.599Z,99181.84
2022-11-18T05:07:00.926Z,99187.06
2022-11-18T05:09:31.772Z,99181.84
2022-11-18T05:12:17.684Z,99183.63
2022-11-18T05:14:49.562Z,99193.09
2022-11-18T05:17:17.694Z,99196.53
2022-11-18T05:19:44.166Z,99199.16
2022-11-18T05:22:10.617Z,99198.25
2022-11-18T05:24:37.018Z,99200.84
2022-11-18T05:27:03.665Z,99204.38
2022-11-18T05:29:30.171Z,99209.59
2022-11-18T05:31:56.635Z,99200.00
2022-11-18T05:34:23.153Z,99203.47
2022-11-18T05:36:49.734Z,99203.47
2022-11-18T05:39:16.694Z,99212.13
2022-11-18T05:42:01.787Z,99206.13
2022-11-18T05:44:28.293Z,99213.91
2022-11-18T05:46:55.209Z,99219.13
2022-11-18T05:49:21.725Z,99225.19
2022-11-18T05:51:48.215Z,99222.56
2022-11-18T05:54:17.990Z,99222.56
2022-11-18T05:56:45.207Z,99232.97
2022-11-18T05:59:12.419Z,99228.63
2022-11-18T06:02:01.614Z,99238.22
2022-11-18T06:04:31.148Z,99241.59
2022-11-18T06:07:05.821Z,99246.81
2022-11-18T06:09:36.864Z,99249.44
2022-11-18T06:12:05.384Z,99256.41
2022-11-18T06:14:42.118Z,99252.94
2022-11-18T06:17:35.669Z,99254.66
2022-11-18T06:20:04.309Z,99264.25
2022-11-18T06:22:31.048Z,99271.09
2022-11-18T06:24:57.562Z,99267.59
2022-11-18T06:27:24.020Z,99271.91
2022-11-18T06:29:50.449Z,99278.88
2022-11-18T06:32:16.904Z,99272.81
2022-11-18T06:34:43.339Z,99279.72
2022-11-18T06:37:14.071Z,99287.56
2022-11-18T06:39:40.496Z,99290.09
2022-11-18T06:42:07.059Z,99296.22
2022-11-18T06:44:33.641Z,99296.22
2022-11-18T06:47:01.450Z,99294.47
2022-11-18T06:49:28.366Z,99302.31
2022-11-18T06:51:55.158Z,99299.66
2022-11-18T06:54:22.231Z,99305.75
2022-11-18T06:56:48.760Z,99308.34
2022-11-18T06:59:15.572Z,99310.09
2022-11-18T07:01:42.358Z,99315.28
2022-11-18T07:04:09.154Z,99317.03
2022-11-18T07:06:36.945Z,99321.41
2022-11-18T07:09:07.098Z,99323.16
2022-11-18T07:11:34.224Z,99330.09
2022-11-18T07:14:01.277Z,99333.53
2022-11-18T07:16:28.072Z,99339.63
2022-11-18T07:18:55.660Z,99343.06
2022-11-18T07:21:25.368Z,99353.50
2022-11-18T07:23:51.885Z,99352.59
2022-11-18T07:26:19.803Z,99361.22
2022-11-18T07:28:46.483Z,99360.31
2022-11-18T07:31:15.591Z,99372.47
2022-11-18T07:33:43.185Z,99375.06
2022-11-18T07:36:12.251Z,99381.19
2022-11-18T07:38:39.571Z,99376.84
2022-11-18T07:41:11.496Z,99378.50
2022-11-18T07:43:38.630Z,99381.13
2022-11-18T07:46:15.656Z,99376.81
2022-11-18T07:48:43.659Z,99388.94
2022-11-18T07:51:10.657Z,99391.56
2022-11-18T07:53:37.564Z,99395.03
2022-11-18T07:56:05.385Z,99401.03
2022-11-18T07:58:32.349Z,99400.19
2022-11-18T08:00:59.379Z,99403.59
2022-11-18T08:03:27.738Z,99407.97
2022-11-18T08:05:58.920Z,99404.44
2022-11-18T08:08:25.458Z,99409.59
2022-11-18T08:10:51.964Z,99413.84
2022-11-18T08:13:18.424Z,99418.09
2022-11-18T08:15:45.166Z,99421.56
2022-11-18T08:18:13.834Z,99425.88
2022-11-18T08:20:40.629Z,99430.19
2022-11-18T08:23:07.096Z,99425.06
2022-11-18T08:25:33.610Z,99426.78
2022-11-18T08:28:00.238Z,99425.81
2022-11-18T08:30:26.723Z,99430.16
2022-11-18T08:32:53.236Z,99428.34
2022-11-18T08:35:19.662Z,99437.94
2022-11-18T08:37:46.125Z,99424.75
2022-11-18T08:40:12.866Z,99432.59
2022-11-18T08:42:39.339Z,99436.91
2022-11-18T08:45:08.499Z,99435.16
2022-11-18T08:47:36.060Z,99449.06
2022-11-18T08:50:04.606Z,99442.06
2022-11-18T08:52:31.079Z,99441.22
2022-11-18T08:54:57.568Z,99446.56
2022-11-18T08:57:24.359Z,99452.69
2022-11-18T08:59:50.915Z,99457.06
2022-11-18T09:02:20.011Z,99458.88
2022-11-18T09:04:47.792Z,99463.25
2022-11-18T09:07:14.414Z,99466.66
2022-11-18T09:09:40.962Z,99464.91
2022-11-18T09:12:07.829Z,99468.38
2022-11-18T09:17:20.627Z,99464.91
2022-11-18T09:19:48.195Z,99471.81
2022-11-18T09:22:14.974Z,99478.94
2022-11-18T09:24:41.422Z,99480.63
2022-11-18T09:27:13.671Z,99485.84
2022-11-18T09:29:43.066Z,99485.78
2022-11-18T09:32:09.614Z,99478.75
2022-11-18T09:34:36.234Z,99485.59
2022-11-18T09:37:06.949Z,99483.84
2022-11-18T09:39:39.509Z,99493.25
2022-11-18T09:42:43.866Z,99491.44
2022-11-18T09:45:24.515Z,99494.91
2022-11-18T09:47:55.914Z,99496.59
2022-11-18T09:53:12.936Z,99495.72
2022-11-18T09:55:41.713Z,99496.66
2022-11-18T09:58:18.315Z,99508.88
2022-11-18T10:00:46.115Z,99505.34
2022-11-18T10:03:21.986Z,99517.38
2022-11-18T10:05:55.836Z,99515.56
2022-11-18T10:08:33.214Z,99518.94
2022-11-18T10:11:14.285Z,99527.50
2022-11-18T10:13:48.791Z,99532.72
2022-11-18T10:16:36.441Z,99531.03
2022-11-18T10:19:24.813Z,99533.66
2022-11-18T10:22:19.471Z,99545.00
2022-11-18T10:24:52.545Z,99538.06
2022-11-18T10:27:19.529Z,99543.13
2022-11-18T10:29:53.096Z,99549.22
2022-11-18T10:32:20.065Z,99545.09
2022-11-18T10:34:57.652Z,99553.69
2022-11-18T10:37:52.935Z,99548.28
2022-11-18T10:40:25.576Z,99553.63
2022-11-18T10:42:52.086Z,99550.78
2022-11-18T10:45:21.466Z,99562.81
2022-11-18T10:48:09.136Z,99562.06
2022-11-18T10:50:37.188Z,99563.66
2022-11-18T10:53:05.786Z,99559.31
2022-11-18T10:55:32.466Z,99560.91
2022-11-18T10:58:10.981Z,99563.47
2022-11-18T11:00:49.267Z,99562.50
2022-11-18T11:03:23.571Z,99563.28
2022-11-18T11:06:18.543Z,99560.66
2022-11-18T11:08:50.689Z,99563.91
2022-11-18T11:11:28.520Z,99564.53
2022-11-18T11:14:02.095Z,99569.81
2022-11-18T11:16:30.668Z,99563.59
2022-11-18T11:19:00.656Z,99565.94
2022-11-18T11:21:27.995Z,99568.19
2022-11-18T11:23:54.789Z,99561.97
2022-11-18T11:29:43.166Z,99560.00
2022-11-18T11:32:26.889Z,99569.63
2022-11-18T11:35:12.741Z,99567.97
2022-11-18T11:37:58.924Z,99573.94
2022-11-18T11:40:39.704Z,99565.16
2022-11-18T11:43:21.332Z,99573.19
2022-11-18T11:46:07.185Z,99581.69
2022-11-18T11:48:51.875Z,99569.31
2022-11-18T11:51:41.855Z,99577.53
2022-11-18T11:54:11.329Z,99572.97
2022-11-18T11:57:00.025Z,99574.31
2022-11-18T11:59:42.788Z,99575.63
2022-11-18T12:02:29.132Z,99576.50
2022-11-18T12:05:00.316Z,99574.22
2022-11-18T12:07:32.086Z,99577.78
2022-11-18T12:10:20.747Z,99575.06
2022-11-18T12:13:13.012Z,99578.63
2022-11-18T12:15:43.023Z,99576.16
2022-11-18T12:18:24.416Z,99577.19
2022-11-18T12:20:53.669Z,99570.34
2022-11-18T12:23:30.817Z,99572.97
2022-11-18T12:26:05.380Z,99576.50
2022-11-18T12:28:45.115Z,99576.38
2022-11-18T12:31:17.802Z,99580.75
2022-11-18T12:33:44.935Z,99581.59
2022-11-18T12:36:28.410Z,99577.91
2022-11-18T12:38:55.902Z,99578.63
2022-11-18T12:41:59.624Z,99574.31
2022-11-18T12:44:28.636Z,99580.53
2022-11-18T12:46:59.309Z,99582.41
2022-11-18T12:49:25.792Z,99586.22
2022-11-18T12:51:53.549Z,99580.41
2022-11-18T12:54:34.425Z,99589.13
2022-11-18T12:57:04.320Z,99598.88
2022-11-18T12:59:38.944Z,99596.25
2022-11-18T13:02:18.312Z,99605.03
2022-11-18T13:04:47.596Z,99618.31
2022-11-18T13:07:37.352Z,99614.06
2022-11-18T13:10:22.625Z,99614.16
2022-11-18T13:12:49.306Z,99616.78
2022-11-18T13:15:34.611Z,99611.59
2022-11-18T13:18:12.727Z,99616.16
2022-11-18T13:20:41.136Z,99615.47
2022-11-18T13:23:29.077Z,99630.50
2022-11-18T13:26:18.934Z,99632.50
2022-11-18T13:29:13.561Z,99628.38
2022-11-18T13:32:06.413Z,99626.75
2022-11-18T13:34:45.442Z,99641.50
2022-11-18T13:37:17.183Z,99631.06
2022-11-18T13:39:44.538Z,99634.53
2022-11-18T13:42:20.464Z,99630.31
2022-11-18T13:45:01.581Z,99639.19
2022-11-18T13:47:41.785Z,99627.16
2022-11-18T13:50:11.269Z,99629.81
2022-11-18T13:52:40.664Z,99634.34
2022-11-18T13:55:15.288Z,99633.66
2022-11-18T13:57:46.156Z,99633.72
2022-11-18T14:00:22.332Z,99639.00
2022-11-18T14:02:57.759Z,99637.34
2022-11-18T14:05:24.980Z,99644.34
2022-11-18T14:07:59.225Z,99645.28
2022-11-18T14:10:43.614Z,99652.31
2022-11-18T14:13:17.253Z,99653.22
2022-11-18T14:15:44.308Z,99641.06
2022-11-18T14:18:21.291Z,99649.84
2022-11-18T14:20:53.017Z,99654.22
2022-11-18T14:23:26.159Z,99651.69
2022-11-18T14:25:52.925Z,99663.00
2022-11-18T14:28:27.105Z,99656.91
2022-11-18T14:30:59.903Z,99649.97
2022-11-18T14:33:28.703Z,99658.63
2022-11-18T14:36:21.733Z,99660.44
2022-11-18T14:39:25.899Z,99656.97
2022-11-18T14:41:48.187Z,99662.25
2022-11-18T14:44:15.353Z,99664.81
2022-11-18T14:46:46.375Z,99667.38
2022-11-18T14:49:17.277Z,99669.97
2022-11-18T14:51:44.931Z,99669.06
2022-11-18T14:54:13.943Z,99662.13
2022-11-18T14:56:41.151Z,99662.25
2022-11-18T14:59:07.683Z,99660.53
2022-11-18T15:01:34.288Z,99662.44
2022-11-18T15:04:00.752Z,99659.97
2022-11-18T15:06:28.478Z,99665.19
2022-11-18T15:08:54.940Z,99665.22
2022-11-18T15:11:21.458Z,99664.50
2022-11-18T15:13:49.690Z,99670.72
2022-11-18T15:16:22.173Z,99681.34
2022-11-18T15:18:52.696Z,99676.13
2022-11-18T15:21:19.828Z,99673.66
2022-11-18T15:23:46.624Z,99678.97
2022-11-18T15:26:23.013Z,99682.56
2022-11-18T15:28:51.340Z,99683.59
2022-11-18T15:31:18.778Z,99691.66
2022-11-18T15:33:45.984Z,99692.72
2022-11-18T15:36:14.557Z,99688.41
2022-11-18T15:38:41.722Z,99688.34
2022-11-18T15:41:25.261Z,99693.00
2022-11-18T15:43:53.610Z,99697.63
2022-11-18T15:46:21.921Z,99706.34
2022-11-18T15:48:51.341Z,99704.66
2022-11-18T15:51:18.072Z,99707.41
2022-11-18T15:53:44.794Z,99705.91
2022-11-18T15:56:20.445Z,99697.34
2022-11-18T15:58:58.298Z,99704.34
2022-11-18T16:01:26.791Z,99710.56
2022-11-18T16:03:53.398Z,99703.88
2022-11-18T16:06:19.944Z,99706.75
2022-11-18T16:08:46.537Z,99713.00
2022-11-18T16:11:33.740Z,99715.53
2022-11-18T16:14:01.909Z,99713.72
2022-11-18T16:16:30.121Z,99714.78
2022-11-18T16:18:57.769Z,99717.44
2022-11-18T16:21:24.904Z,99721.00
2022-11-18T16:23:54.916Z,99719.38
2022-11-18T16:26:21.478Z,99729.81
2022-11-18T16:28:47.961Z,99723.63
2022-11-18T16:31:43.894Z,99721.09
2022-11-18T16:34:22.147Z,99722.13
2022-11-18T16:36:54.213Z,99728.94
2022-11-18T16:39:26.105Z,99735.28
2022-11-18T16:41:54.464Z,99737.22
2022-11-18T16:44:20.954Z,99728.63
2022-11-18T16:46:52.298Z,99728.72
2022-11-18T16:49:21.594Z,99738.41
2022-11-18T16:51:50.485Z,99740.22
2022-11-18T16:54:23.325Z,99740.22
2022-11-18T16:56:51.270Z,99742.63
2022-11-18T16:59:21.823Z,99747.03
2022-11-18T17:01:52.556Z,99746.13
2022-11-18T17:04:20.710Z,99740.16
2022-11-18T17:06:47.272Z,99744.25
2022-11-18T17:09:16.879Z,99744.03
2022-11-18T17:11:43.705Z,99747.47
2022-11-18T17:14:10.324Z,99744.09
2022-11-18T17:16:37.283Z,99756.38
2022-11-18T17:19:10.180Z,99765.16
2022-11-18T17:21:38.364Z,99758.28
2022-11-18T17:24:05.691Z,99755.72
2022-11-18T17:26:32.395Z,99760.97
2022-11-18T17:28:58.834Z,99759.16
2022-11-18T17:31:25.953Z,99770.66
2022-11-18T17:33:54.397Z,99761.13
2022-11-18T17:36:23.440Z,99762.72
2022-11-18T17:38:52.611Z,99764.41
2022-11-18T17:41:41.200Z,99767.09
2022-11-18T17:44:10.024Z,99770.81
2022-11-18T17:46:38.554Z,99769.84
2022-11-18T17:49:07.839Z,99778.50
2022-11-18T17:51:34.362Z,99778.41
2022-11-18T17:54:00.888Z,99779.38
2022-11-18T17:56:27.388Z,99775.88
2022-11-18T17:58:53.888Z,99784.53
2022-11-18T18:01:21.593Z,99778.41
2022-11-18T18:03:48.423Z,99787.91
2022-11-18T18:06:15.397Z,99790.09
2022-11-18T18:08:42.052Z,99790.25
2022-11-18T18:11:14.752Z,99789.50
2022-11-18T18:14:01.028Z,99794.84
2022-11-18T18:16:29.612Z,99794.59
2022-11-18T18:18:57.905Z,99798.03
2022-11-18T18:21:24.581Z,99798.09
2022-11-18T18:23:51.247Z,99799.00
2022-11-18T18:26:17.672Z,99803.28
2022-11-18T18:28:45.041Z,99803.28
2022-11-18T18:31:14.097Z,99806.72
2022-11-18T18:33:40.920Z,99811.16
2022-11-18T18:36:10.831Z,99829.47
2022-11-18T18:38:38.676Z,99823.28
2022-11-18T18:41:07.849Z,99823.03
2022-11-18T18:43:34.716Z,99832.56
2022-11-18T18:46:30.357Z,99826.41
2022-11-18T18:49:12.531Z,99833.25
2022-11-18T18:51:48.812Z,99830.69
2022-11-18T18:54:17.282Z,99834.88
2022-11-18T18:56:44.198Z,99835.56
2022-11-18T18:59:11.272Z,99832.84
2022-11-18T19:01:38.575Z,99831.03
2022-11-18T19:04:06.799Z,99836.16
2022-11-18T19:09:25.709Z,99832.78
2022-11-18T19:12:11.656Z,99836.16
2022-11-18T19:14:38.200Z,99844.78
2022-11-18T19:17:10.238Z,99838.75
2022-11-18T19:19:57.108Z,99838.75
2022-11-18T19:22:24.481Z,99843.06
2022-11-18T19:24:51.325Z,99837.91
2022-11-18T19:27:19.234Z,99839.63
2022-11-18T19:29:45.759Z,99843.97
2022-11-18T19:32:12.759Z,99840.38
2022-11-18T19:34:39.305Z,99845.53
2022-11-18T19:37:05.736Z,99849.09
2022-11-18T19:39:32.365Z,99847.38
2022-11-18T19:41:58.932Z,99845.59
2022-11-18T19:44:25.487Z,99851.03
2022-11-18T19:46:51.980Z,99852.88
2022-11-18T19:49:18.899Z,99852.91
2022-11-18T19:51:45.553Z,99865.84
2022-11-18T19:54:11.933Z,99860.63
2022-11-18T19:56:38.908Z,99864.09
2022-11-18T19:59:05.507Z,99867.56
2022-11-18T20:01:32.062Z,99864.84
2022-11-18T20:04:05.523Z,99864.81
2022-11-18T20:06:34.148Z,99864.81
2022-11-18T20:09:00.569Z,99865.53
2022-11-18T20:11:28.148Z,99873.28
2022-11-18T20:13:54.690Z,99871.56
2022-11-18T20:16:23.443Z,99874.25
2022-11-18T20:18:59.537Z,99875.16
2022-11-18T20:21:27.584Z,99874.19
2022-11-18T20:23:59.783Z,99878.50
2022-11-18T20:26:29.334Z,99879.53
2022-11-18T20:28:57.629Z,99883.03
2022-11-18T20:31:25.589Z,99878.63
2022-11-18T20:33:55.033Z,99881.97
2022-11-18T20:36:24.173Z,99881.91
2022-11-18T20:38:53.341Z,99880.16
2022-11-18T20:41:20.977Z,99884.53
2022-11-18T20:43:48.125Z,99887.00
2022-11-18T20:46:20.763Z,99876.56
2022-11-18T20:48:49.144Z,99885.19
2022-11-18T20:51:23.282Z,99878.25
2022-11-18T20:53:51.101Z,99881.69
2022-11-18T20:56:19.945Z,99887.78
2022-11-18T20:58:46.509Z,99879.94
2022-11-18T21:01:24.984Z,99880.88
2022-11-18T21:03:54.444Z,99878.31
2022-11-18T21:06:23.176Z,99882.63
2022-11-18T21:08:55.139Z,99881.72
2022-11-18T21:11:21.622Z,99890.41
2022-11-18T21:14:06.749Z,99892.97
2022-11-18T21:16:33.455Z,99901.59
2022-11-18T21:18:59.933Z,99899.00
2022-11-18T21:21:44.524Z,99899.03
2022-11-18T21:24:23.079Z,99906.88
2022-11-18T21:26:52.097Z,99904.28
2022-11-18T21:29:20.252Z,99899.03
2022-11-18T21:31:47.412Z,99899.84
2022-11-18T21:34:15.554Z,99902.41
2022-11-18T21:36:46.714Z,99911.13
2022-11-18T21:39:15.979Z,99911.13
2022-11-18T21:41:42.761Z,99907.66
2022-11-18T21:44:11.393Z,99906.00
2022-11-18T21:46:39.718Z,99902.56
2022-11-18T21:49:06.749Z,99908.69
2022-11-18T21:51:34.381Z,99912.09
2022-11-18T21:54:01.559Z,99904.25
2022-11-18T21:56:30.991Z,99912.09
2022-11-18T21:59:00.152Z,99913.00
2022-11-18T22:01:29.015Z,99915.59
2022-11-18T22:03:57.659Z,99918.16
2022-11-18T22:06:25.670Z,99915.59
2022-11-18T22:08:52.589Z,99913.88
2022-11-18T22:11:22.243Z,99924.34
2022-11-18T22:13:50.873Z,99920.88
2022-11-18T22:16:19.046Z,99920.84
2022-11-18T22:18:50.320Z,99921.63
2022-11-18T22:21:21.149Z,99913.78
2022-11-18T22:23:48.279Z,99920.78
2022-11-18T22:26:17.364Z,99923.38
2022-11-18T22:28:44.329Z,99919.03
2022-11-18T22:31:12.026Z,99918.97
2022-11-18T22:33:38.806Z,99924.22
2022-11-18T22:36:08.753Z,99926.03
2022-11-18T22:38:35.470Z,99926.09
2022-11-18T22:41:03.977Z,99923.50
2022-11-18T22:43:32.377Z,99930.50
2022-11-18T22:46:08.420Z,99931.38
2022-11-18T22:48:35.472Z,99938.34
2022-11-18T22:51:06.144Z,99936.59
2022-11-18T22:53:33.629Z,99942.69
2022-11-18T22:56:11.844Z,99934.06
2022-11-18T22:58:38.790Z,99928.84
2022-11-18T23:01:11.301Z,99934.06
2022-11-18T23:03:37.763Z,99940.34
2022-11-18T23:06:05.135Z,99941.22
2022-11-18T23:08:34.219Z,99947.31
2022-11-18T23:11:02.117Z,99944.78
2022-11-18T23:13:47.152Z,99949.91
2022-11-18T23:16:13.593Z,99950.03
2022-11-18T23:18:40.145Z,99959.56
2022-11-18T23:21:06.760Z,99952.66
2022-11-18T23:23:33.202Z,99950.94
2022-11-18T23:26:08.413Z,99950.06
2022-11-18T23:28:36.045Z,99964.81
2022-11-18T23:31:11.411Z,99958.00
2022-11-18T23:33:38.899Z,99958.91
2022-11-18T23:36:07.366Z,99959.00
2022-11-18T23:38:34.617Z,99961.69
2022-11-18T23:41:03.779Z,99964.31
2022-11-18T23:43:31.389Z,99964.28
2022-11-18T23:45:58.706Z,99970.53
2022-11-18T23:48:26.874Z,99966.31
2022-11-18T23:50:57.592Z,99962.94
2022-11-18T23:53:25.081Z,99964.63
2022-11-18T23:55:51.586Z,99964.69
2022-11-18T23:58:18.495Z,99969.13
